Time;durP1;ratioP1;P1;durP2;ratioP2;P2;SDS_P1;SDS_P2;PMS_P1;PMS_P2;Temp;Humidity;BMP_temperature;BMP_pressure;BME280_temperature;BME280_humidity;BME280_pressure;Samples;Min_cycle;Max_cycle;Signal;HPM_P1;HPM_P2
2023/01/15 00:02:25;;;;;;;1.73;1.63;;;10.30;99.90;;;;;;5006920;28;20028;-54
2023/01/15 00:05:11;;;;;;;1.23;1.13;;;10.30;99.90;;;;;;5002023;28;20032;-50
2023/01/15 00:07:56;;;;;;;1.30;1.20;;;10.30;99.90;;;;;;5002206;28;20038;-51
2023/01/15 00:10:42;;;;;;;2.42;1.90;;;10.40;99.90;;;;;;5007067;28;20030;-49
2023/01/15 00:13:29;;;;;;;2.22;1.80;;;10.50;99.90;;;;;;5012241;28;20053;-51
2023/01/15 00:16:18;;;;;;;1.20;1.10;;;10.50;99.90;;;;;;5001873;28;20537;-57
2023/01/15 00:19:07;;;;;;;1.60;1.50;;;10.50;99.90;;;;;;5000763;28;20495;-49
2023/01/15 00:21:53;;;;;;;1.02;1.02;;;10.50;99.90;;;;;;4997493;28;20114;-45
2023/01/15 00:27:44;;;;;;;1.17;1.15;;;10.40;99.90;;;;;;5000345;28;20033;-55
2023/01/15 00:30:30;;;;;;;1.08;1.08;;;10.50;99.90;;;;;;5003383;28;20045;-58
2023/01/15 00:33:16;;;;;;;1.10;1.10;;;10.50;99.90;;;;;;5002926;28;20069;-53
2023/01/15 00:36:02;;;;;;;1.33;1.23;;;10.40;99.90;;;;;;4998106;28;20478;-56
2023/01/15 00:38:48;;;;;;;1.38;1.27;;;10.40;99.90;;;;;;5003137;28;20443;-52
2023/01/15 00:41:34;;;;;;;1.35;1.27;;;10.40;99.90;;;;;;5006956;28;20411;-52
2023/01/15 00:44:20;;;;;;;0.95;0.95;;;10.40;99.90;;;;;;5006676;28;20026;-58
2023/01/15 00:47:08;;;;;;;1.10;1.10;;;10.40;99.90;;;;;;5007522;28;20053;-52
2023/01/15 00:49:53;;;;;;;1.10;1.10;;;10.40;99.90;;;;;;5000954;28;20031;-56
2023/01/15 00:52:41;;;;;;;0.95;0.95;;;10.40;99.90;;;;;;5003180;28;20149;-57
2023/01/15 00:55:27;;;;;;;0.90;0.90;;;10.40;99.90;;;;;;5006881;28;20029;-55
2023/01/15 00:58:12;;;;;;;1.17;1.17;;;10.40;99.90;;;;;;5002397;28;20030;-56
2023/01/15 01:01:01;;;;;;;1.42;1.33;;;10.40;99.90;;;;;;5011462;28;20558;-46
2023/01/15 01:03:49;;;;;;;2.05;1.10;;;10.50;99.90;;;;;;5003687;28;20089;-55
2023/01/15 01:06:34;;;;;;;1.55;1.45;;;10.50;99.90;;;;;;5004685;28;20044;-50
2023/01/15 01:09:20;;;;;;;1.30;1.20;;;10.50;99.90;;;;;;5010195;28;20030;-48
2023/01/15 01:12:07;;;;;;;0.90;0.90;;;10.50;99.90;;;;;;4999425;28;20056;-51
2023/01/15 01:14:53;;;;;;;1.40;1.30;;;10.50;99.90;;;;;;5001395;28;20058;-47
2023/01/15 01:17:39;;;;;;;1.30;1.20;;;10.50;99.90;;;;;;4997336;28;20076;-45
2023/01/15 01:20:25;;;;;;;1.50;1.30;;;10.50;99.90;;;;;;5002958;28;20026;-55
2023/01/15 01:23:11;;;;;;;1.05;1.05;;;10.50;99.90;;;;;;5005934;28;20045;-53
2023/01/15 01:25:57;;;;;;;1.50;1.10;;;10.50;99.90;;;;;;5004605;28;20030;-48
2023/01/15 01:28:47;;;;;;;1.55;1.45;;;10.50;99.90;;;;;;5006368;28;20026;-47
2023/01/15 01:31:33;;;;;;;1.30;1.23;;;10.60;99.90;;;;;;5002460;28;20023;-50
2023/01/15 01:34:20;;;;;;;1.35;1.25;;;10.60;99.90;;;;;;5005383;28;20089;-49
2023/01/15 01:37:06;;;;;;;1.52;1.42;;;10.60;99.90;;;;;;5001528;28;20026;-46
2023/01/15 01:39:51;;;;;;;1.50;1.40;;;10.60;99.90;;;;;;5000082;28;20033;-48
2023/01/15 01:42:37;;;;;;;1.90;1.38;;;10.70;99.90;;;;;;5004131;28;20027;-57
2023/01/15 01:45:32;;;;;;;1.40;1.30;;;10.60;99.90;;;;;;5014491;28;20081;-49
2023/01/15 01:48:23;;;;;;;1.13;1.05;;;10.60;99.90;;;;;;5007298;28;20088;-56
2023/01/15 01:51:10;;;;;;;1.35;1.25;;;10.60;99.90;;;;;;5002239;28;20026;-47
2023/01/15 01:53:57;;;;;;;1.45;1.27;;;10.60;99.90;;;;;;5000905;28;20034;-46
2023/01/15 01:56:43;;;;;;;1.98;1.42;;;10.60;99.90;;;;;;5001524;28;20057;-48
2023/01/15 01:59:29;;;;;;;3.60;1.67;;;10.60;99.90;;;;;;4994431;28;20673;-48
2023/01/15 02:02:19;;;;;;;1.50;1.40;;;10.50;99.90;;;;;;5001195;28;20061;-51
2023/01/15 02:05:07;;;;;;;1.67;1.55;;;10.60;99.90;;;;;;5001422;28;20054;-59
2023/01/15 02:07:53;;;;;;;1.00;1.00;;;10.60;99.90;;;;;;4999189;28;20030;-50
2023/01/15 02:10:40;;;;;;;1.45;1.35;;;10.60;99.90;;;;;;5001947;28;20032;-53
2023/01/15 02:13:49;;;;;;;1.50;1.40;;;10.50;99.90;;;;;;4995149;28;20041;-53
2023/01/15 02:16:38;;;;;;;2.95;1.40;;;10.50;99.90;;;;;;5020339;28;20026;-52
2023/01/15 02:20:09;;;;;;;1.40;1.30;;;10.60;99.90;;;;;;5004583;28;20040;-52
2023/01/15 02:23:15;;;;;;;1.00;1.00;;;10.50;99.90;;;;;;5012744;28;20026;-46
2023/01/15 02:26:10;;;;;;;1.48;1.20;;;10.50;99.90;;;;;;5015193;28;20041;-46
2023/01/15 02:28:58;;;;;;;1.08;1.00;;;10.50;99.90;;;;;;5030192;28;20039;-49
2023/01/15 02:31:50;;;;;;;1.30;1.20;;;10.60;99.90;;;;;;5019519;28;20041;-47
2023/01/15 02:34:43;;;;;;;1.05;1.05;;;10.60;99.90;;;;;;5010063;28;20499;-55
2023/01/15 02:37:32;;;;;;;0.70;0.70;;;10.60;99.90;;;;;;5026532;28;20091;-54
2023/01/15 02:40:21;;;;;;;1.00;1.00;;;10.60;99.90;;;;;;5030924;28;20026;-51
2023/01/15 02:43:08;;;;;;;1.00;1.00;;;10.60;99.90;;;;;;4991671;28;20557;-54
2023/01/15 02:45:56;;;;;;;0.82;0.82;;;10.60;99.90;;;;;;4979209;28;20610;-53
2023/01/15 02:48:46;;;;;;;1.52;1.13;;;10.60;99.90;;;;;;5011614;28;20030;-55
2023/01/15 02:51:38;;;;;;;0.80;0.80;;;10.60;99.90;;;;;;5026110;28;20033;-56
2023/01/15 02:54:29;;;;;;;1.35;0.85;;;10.50;99.90;;;;;;5029257;28;20033;-49
2023/01/15 02:57:17;;;;;;;1.15;1.05;;;10.50;99.90;;;;;;4991413;28;20031;-52
2023/01/15 03:00:09;;;;;;;1.10;1.10;;;10.50;99.90;;;;;;4993456;28;20069;-54
2023/01/15 03:03:01;;;;;;;1.13;1.00;;;10.50;99.90;;;;;;5012282;28;20397;-57
2023/01/15 03:06:15;;;;;;;1.00;1.00;;;10.40;99.90;;;;;;5014172;28;20079;-58
2023/01/15 03:09:01;;;;;;;0.90;0.90;;;10.50;99.90;;;;;;4994605;28;20069;-55
2023/01/15 03:12:03;;;;;;;1.70;1.02;;;10.40;99.90;;;;;;5022793;28;20030;-49
2023/01/15 03:15:02;;;;;;;2.28;1.45;;;10.40;99.90;;;;;;5024157;28;20033;-51
2023/01/15 03:17:54;;;;;;;0.90;0.90;;;10.40;99.90;;;;;;5013615;28;20510;-52
2023/01/15 03:20:44;;;;;;;1.13;1.02;;;10.40;99.90;;;;;;5018366;28;20458;-52
2023/01/15 03:23:35;;;;;;;1.10;1.10;;;10.40;99.90;;;;;;5023359;28;20025;-51
2023/01/15 03:26:21;;;;;;;1.38;1.00;;;10.30;99.90;;;;;;5026169;28;20022;-49
2023/01/15 03:29:07;;;;;;;1.15;1.02;;;10.30;99.90;;;;;;5010128;28;20087;-54
2023/01/15 03:31:53;;;;;;;1.45;1.05;;;10.30;99.90;;;;;;5019793;28;20156;-52
2023/01/15 03:34:44;;;;;;;1.50;1.40;;;10.20;99.90;;;;;;5020143;28;20069;-58
2023/01/15 03:37:30;;;;;;;1.00;1.00;;;10.10;99.90;;;;;;5030267;28;20021;-52
2023/01/15 03:40:16;;;;;;;1.35;1.20;;;10.00;99.90;;;;;;5031601;28;20036;-51
2023/01/15 03:46:17;;;;;;;1.50;1.10;;;10.00;99.90;;;;;;5024077;28;20025;-52
2023/01/15 03:49:22;;;;;;;2.00;1.10;;;10.00;99.90;;;;;;5032797;28;20022;-59
2023/01/15 03:52:32;;;;;;;1.23;1.15;;;9.90;99.90;;;;;;5015206;28;20030;-59
2023/01/15 03:55:42;;;;;;;1.02;1.02;;;9.90;99.90;;;;;;5014733;28;20561;-54
2023/01/15 03:59:08;;;;;;;1.25;1.00;;;9.90;99.90;;;;;;5033284;28;20029;-53
2023/01/15 04:01:55;;;;;;;1.70;1.17;;;9.90;99.90;;;;;;5019124;28;20505;-53
2023/01/15 04:04:44;;;;;;;1.10;1.10;;;9.90;99.90;;;;;;5013671;28;20624;-51
2023/01/15 04:07:31;;;;;;;2.05;1.20;;;9.90;99.90;;;;;;5013982;28;20084;-53
2023/01/15 04:10:17;;;;;;;3.03;1.92;;;9.90;99.90;;;;;;5013722;28;20030;-56
2023/01/15 04:13:03;;;;;;;2.00;1.80;;;9.90;99.90;;;;;;5032317;28;20095;-53
2023/01/15 04:15:49;;;;;;;2.45;2.25;;;9.50;99.90;;;;;;5028648;28;20084;-56
2023/01/15 04:18:35;;;;;;;3.40;2.30;;;8.90;99.90;;;;;;5014547;28;20025;-55
2023/01/15 04:21:22;;;;;;;2.58;2.38;;;8.50;99.90;;;;;;5024481;28;20033;-52
2023/01/15 04:24:08;;;;;;;2.90;2.42;;;8.20;99.90;;;;;;5035314;28;20022;-58
2023/01/15 04:26:54;;;;;;;4.78;2.83;;;8.00;99.90;;;;;;5021916;28;20085;-59
2023/01/15 04:29:40;;;;;;;3.90;2.40;;;7.80;99.90;;;;;;5015734;28;20502;-60
2023/01/15 04:32:27;;;;;;;2.72;2.50;;;7.70;99.90;;;;;;5015809;28;20041;-57
2023/01/15 04:35:13;;;;;;;3.40;2.20;;;7.50;99.90;;;;;;5028522;28;20045;-54
2023/01/15 04:37:59;;;;;;;2.55;2.30;;;7.50;99.90;;;;;;5022369;28;20026;-50
2023/01/15 04:44:05;;;;;;;3.40;2.40;;;7.30;99.90;;;;;;5012851;28;20030;-54
2023/01/15 04:46:52;;;;;;;3.38;2.28;;;7.30;99.90;;;;;;5013761;28;20033;-54
2023/01/15 04:49:38;;;;;;;2.30;1.90;;;7.20;99.90;;;;;;5012351;28;20576;-49
2023/01/15 04:52:24;;;;;;;2.65;1.80;;;7.20;99.90;;;;;;5008185;28;20030;-48
2023/01/15 04:55:10;;;;;;;3.90;1.88;;;7.10;99.90;;;;;;5026531;28;20034;-48
2023/01/15 04:57:56;;;;;;;3.65;2.20;;;7.20;99.90;;;;;;5031830;28;20093;-50
2023/01/15 05:00:42;;;;;;;3.08;1.75;;;7.00;99.90;;;;;;5032338;28;20053;-52
2023/01/15 05:03:29;;;;;;;2.70;1.70;;;7.00;99.90;;;;;;5033048;28;20022;-49
2023/01/15 05:06:17;;;;;;;3.35;1.88;;;7.00;99.90;;;;;;5032472;28;20042;-51
2023/01/15 05:09:04;;;;;;;1.50;1.33;;;7.10;99.90;;;;;;5028857;28;20044;-51
2023/01/15 05:11:49;;;;;;;1.50;1.38;;;7.00;99.90;;;;;;5012806;28;20033;-57
2023/01/15 05:14:35;;;;;;;1.58;1.48;;;7.10;99.90;;;;;;5015876;28;20121;-53
2023/01/15 05:17:21;;;;;;;2.17;1.30;;;7.00;99.90;;;;;;5006213;28;20089;-51
2023/01/15 05:20:08;;;;;;;2.72;1.48;;;7.10;99.90;;;;;;5004546;28;20034;-54
2023/01/15 05:22:54;;;;;;;1.35;1.10;;;6.90;99.90;;;;;;5012397;28;20022;-56
2023/01/15 05:25:40;;;;;;;1.63;1.30;;;7.10;99.90;;;;;;5025349;28;20045;-53
2023/01/15 05:28:26;;;;;;;1.88;1.30;;;6.90;99.90;;;;;;5031440;28;20045;-55
2023/01/15 05:31:16;;;;;;;2.63;1.30;;;6.80;99.90;;;;;;5013923;28;20034;-52
2023/01/15 05:34:02;;;;;;;1.38;1.27;;;6.80;99.90;;;;;;5027555;28;20464;-54
2023/01/15 05:36:49;;;;;;;1.10;1.02;;;6.80;99.90;;;;;;5014181;28;20026;-54
2023/01/15 05:39:35;;;;;;;0.85;0.85;;;7.00;99.90;;;;;;5014404;28;20092;-51
2023/01/15 05:42:21;;;;;;;1.33;1.00;;;7.00;99.90;;;;;;5031809;28;20136;-54
2023/01/15 05:45:07;;;;;;;1.33;1.13;;;7.00;99.90;;;;;;5022641;28;20038;-55
2023/01/15 05:47:53;;;;;;;1.27;1.05;;;7.00;99.90;;;;;;5011075;28;20046;-54
2023/01/15 05:50:39;;;;;;;1.30;1.20;;;7.10;99.90;;;;;;5022983;28;20030;-52
2023/01/15 05:53:25;;;;;;;1.52;1.17;;;7.00;99.90;;;;;;5031882;28;20059;-55
2023/01/15 05:56:11;;;;;;;1.58;1.00;;;7.00;99.90;;;;;;4978048;28;20501;-54
2023/01/15 05:58:57;;;;;;;2.85;1.20;;;7.10;99.90;;;;;;4997060;28;20096;-55
2023/01/15 06:01:43;;;;;;;2.08;1.20;;;7.00;99.90;;;;;;5020257;28;20145;-54
2023/01/15 06:04:29;;;;;;;1.85;1.30;;;6.90;99.90;;;;;;5011996;28;20033;-56
2023/01/15 06:07:17;;;;;;;1.65;1.15;;;6.80;99.90;;;;;;5016907;28;20084;-52
2023/01/15 06:10:03;;;;;;;5.28;1.73;;;6.80;99.90;;;;;;5020450;28;20030;-57
2023/01/15 06:12:51;;;;;;;2.40;1.05;;;6.90;99.90;;;;;;5010988;28;20038;-57
2023/01/15 06:15:37;;;;;;;1.02;1.02;;;6.90;99.90;;;;;;5024845;28;20057;-53
2023/01/15 06:18:23;;;;;;;2.08;1.10;;;6.80;99.90;;;;;;5029672;28;20585;-56
2023/01/15 06:21:11;;;;;;;1.67;1.10;;;6.90;99.90;;;;;;4991460;28;20037;-55
2023/01/15 06:23:58;;;;;;;1.52;1.42;;;6.90;99.90;;;;;;4992074;28;20033;-52
2023/01/15 06:26:44;;;;;;;1.70;1.05;;;6.90;99.90;;;;;;5011011;28;20033;-53
2023/01/15 06:29:30;;;;;;;5.57;2.15;;;7.00;99.90;;;;;;5014525;28;20088;-53
2023/01/15 06:32:16;;;;;;;1.30;1.20;;;7.00;99.90;;;;;;5029879;28;20033;-53
2023/01/15 06:35:01;;;;;;;1.38;1.23;;;7.10;99.90;;;;;;5022467;28;20034;-54
2023/01/15 06:37:51;;;;;;;1.27;1.10;;;7.10;99.90;;;;;;5010151;28;20058;-55
2023/01/15 06:40:37;;;;;;;0.98;0.90;;;7.20;99.90;;;;;;5022427;28;20033;-56
2023/01/15 06:49:34;;;;;;;1.48;1.38;;;6.80;99.90;;;;;;5008126;28;20117;-52
2023/01/15 06:52:21;;;;;;;1.65;1.48;;;6.80;99.90;;;;;;5025389;28;20389;-50
2023/01/15 06:55:08;;;;;;;1.52;1.42;;;6.70;99.90;;;;;;5011321;28;20033;-48
2023/01/15 06:57:54;;;;;;;1.70;1.10;;;6.70;99.90;;;;;;5018306;28;20030;-53
2023/01/15 07:00:44;;;;;;;1.02;0.93;;;6.80;99.90;;;;;;5031083;28;20056;-53
2023/01/15 07:03:30;;;;;;;0.90;0.90;;;6.70;99.90;;;;;;5018916;28;20101;-53
2023/01/15 07:06:16;;;;;;;0.98;0.98;;;6.70;99.90;;;;;;5010170;28;20030;-51
2023/01/15 07:09:02;;;;;;;2.80;1.95;;;6.70;99.90;;;;;;5024686;28;20036;-51
2023/01/15 07:11:48;;;;;;;2.20;1.30;;;6.70;99.90;;;;;;5029515;28;20025;-50
2023/01/15 07:14:35;;;;;;;1.77;0.98;;;6.60;99.90;;;;;;4991666;28;20041;-48
2023/01/15 07:17:21;;;;;;;1.30;1.10;;;6.70;99.90;;;;;;4992769;28;20084;-52
2023/01/15 07:20:07;;;;;;;1.95;1.25;;;6.80;99.90;;;;;;5014228;28;20089;-51
2023/01/15 07:22:53;;;;;;;1.20;1.10;;;6.80;99.90;;;;;;5015794;28;20113;-52
2023/01/15 07:25:39;;;;;;;1.88;1.20;;;6.80;99.90;;;;;;5016660;28;20053;-52
2023/01/15 07:28:25;;;;;;;0.93;0.85;;;6.70;99.90;;;;;;4991189;28;20493;-51
2023/01/15 07:31:11;;;;;;;1.50;1.15;;;6.60;99.90;;;;;;5018210;28;20482;-54
2023/01/15 07:33:57;;;;;;;1.90;1.00;;;6.70;99.90;;;;;;5013460;28;20033;-50
2023/01/15 07:36:43;;;;;;;0.85;0.85;;;6.70;99.90;;;;;;5029986;28;20045;-49
2023/01/15 07:39:30;;;;;;;1.23;1.13;;;6.80;99.90;;;;;;5028060;28;20083;-48
2023/01/15 07:51:30;;;;;;;1.47;1.23;;;6.70;99.90;;;;;;5034886;28;20033;-47
2023/01/15 07:54:16;;;;;;;1.65;1.48;;;6.70;99.90;;;;;;5015970;28;20127;-49
2023/01/15 07:57:02;;;;;;;1.48;1.38;;;6.70;99.90;;;;;;5012427;28;20053;-49
2023/01/15 07:59:50;;;;;;;3.78;2.20;;;6.60;99.90;;;;;;4995508;28;20030;-54
2023/01/15 08:02:36;;;;;;;1.42;1.33;;;6.60;99.90;;;;;;4995187;28;20034;-53
2023/01/15 08:05:22;;;;;;;1.20;1.10;;;6.60;99.90;;;;;;4998836;28;20057;-48
2023/01/15 08:08:14;;;;;;;6.88;2.50;;;6.60;99.90;;;;;;5014934;28;20114;-48
2023/01/15 08:17:10;;;;;;;0.95;0.90;;;6.50;99.90;;;;;;5017925;28;20022;-48
2023/01/15 08:19:56;;;;;;;1.17;1.10;;;6.40;99.90;;;;;;5012953;28;20036;-49
2023/01/15 08:22:43;;;;;;;2.42;1.83;;;6.40;99.90;;;;;;4995574;28;20022;-50
2023/01/15 08:25:29;;;;;;;2.67;0.95;;;6.30;99.90;;;;;;5027090;28;20036;-53
2023/01/15 08:28:15;;;;;;;1.40;1.05;;;6.40;99.90;;;;;;5031291;28;20033;-49
2023/01/15 08:31:00;;;;;;;0.90;0.90;;;6.40;99.90;;;;;;5014426;28;20037;-49
2023/01/15 08:33:46;;;;;;;0.80;0.80;;;6.40;99.90;;;;;;5019708;28;20033;-54
2023/01/15 08:36:33;;;;;;;1.20;1.10;;;6.40;99.90;;;;;;5032595;28;20557;-55
2023/01/15 08:39:19;;;;;;;1.65;1.02;;;6.40;99.90;;;;;;5023687;28;20439;-54
2023/01/15 08:42:05;;;;;;;1.00;0.90;;;6.40;99.90;;;;;;5014727;28;20161;-57
2023/01/15 08:44:51;;;;;;;1.00;1.00;;;6.40;99.90;;;;;;5012516;28;20034;-57
2023/01/15 08:47:36;;;;;;;0.82;0.82;;;6.40;99.90;;;;;;5004524;28;20036;-56
2023/01/15 08:50:23;;;;;;;1.27;1.17;;;6.30;99.90;;;;;;5012889;28;20041;-56
2023/01/15 08:53:09;;;;;;;1.13;1.02;;;6.30;99.90;;;;;;5014513;28;20033;-57
2023/01/15 08:55:55;;;;;;;1.98;1.40;;;6.30;99.90;;;;;;5015503;28;20041;-54
2023/01/15 08:58:41;;;;;;;1.58;1.13;;;6.30;99.90;;;;;;5018589;28;20108;-55
2023/01/15 09:01:27;;;;;;;1.75;1.08;;;6.30;99.90;;;;;;5027099;28;20109;-51
2023/01/15 09:04:15;;;;;;;1.02;1.02;;;6.40;99.90;;;;;;5009843;28;20045;-56
2023/01/15 09:07:01;;;;;;;1.50;1.00;;;6.30;99.90;;;;;;5012863;28;20105;-59
2023/01/15 09:09:47;;;;;;;1.25;1.10;;;6.30;99.90;;;;;;5014818;28;20049;-55
2023/01/15 09:12:33;;;;;;;0.80;0.80;;;6.30;99.90;;;;;;5032096;28;20026;-56
2023/01/15 09:15:19;;;;;;;1.23;1.00;;;6.30;99.90;;;;;;5018936;28;20438;-55
2023/01/15 09:18:05;;;;;;;0.80;0.80;;;6.40;99.90;;;;;;5011847;28;20072;-58
2023/01/15 09:20:51;;;;;;;1.52;1.27;;;6.30;99.90;;;;;;5012881;28;20486;-55
2023/01/15 09:23:37;;;;;;;1.08;0.98;;;6.30;99.90;;;;;;5017761;28;20535;-51
2023/01/15 09:26:34;;;;;;;0.82;0.82;;;6.40;99.90;;;;;;5015982;28;20029;-52
2023/01/15 09:29:20;;;;;;;1.10;1.10;;;6.40;99.90;;;;;;5005994;28;20017;-49
2023/01/15 09:32:08;;;;;;;1.85;1.23;;;6.40;99.90;;;;;;5012083;28;20045;-47
2023/01/15 09:34:54;;;;;;;1.10;1.00;;;6.30;99.90;;;;;;5011870;28;20038;-51
2023/01/15 09:37:40;;;;;;;1.77;1.67;;;6.30;99.90;;;;;;5012068;28;20076;-50
2023/01/15 09:40:55;;;;;;;0.90;0.90;;;6.30;99.90;;;;;;5012524;28;20030;-50
2023/01/15 09:44:00;;;;;;;1.00;0.90;;;6.40;99.90;;;;;;5031385;28;20056;-53
2023/01/15 09:47:16;;;;;;;1.40;1.08;;;6.50;99.90;;;;;;5031426;28;20018;-51
2023/01/15 09:50:17;;;;;;;1.27;1.10;;;6.50;99.90;;;;;;5006957;28;20054;-50
2023/01/15 09:53:14;;;;;;;1.63;1.27;;;6.50;99.90;;;;;;5012088;28;20053;-50
2023/01/15 09:56:01;;;;;;;1.30;0.88;;;6.50;99.90;;;;;;5012024;28;20030;-54
2023/01/15 09:58:48;;;;;;;3.42;1.33;;;6.50;99.90;;;;;;5012685;28;20092;-50
2023/01/15 10:01:34;;;;;;;1.38;1.23;;;6.50;99.90;;;;;;5012364;28;20243;-49
2023/01/15 10:04:39;;;;;;;2.13;1.30;;;6.50;99.90;;;;;;5012229;28;20030;-48
2023/01/15 10:07:50;;;;;;;1.88;1.52;;;6.60;99.90;;;;;;5011619;28;20029;-48
2023/01/15 10:10:45;;;;;;;2.85;2.28;;;6.70;99.90;;;;;;5012177;28;20072;-51
2023/01/15 10:13:46;;;;;;;1.20;1.00;;;6.80;99.90;;;;;;5010940;28;20088;-52
2023/01/15 10:16:32;;;;;;;2.08;1.30;;;6.80;99.90;;;;;;5011147;28;20056;-50
2023/01/15 10:19:19;;;;;;;1.05;0.98;;;6.90;99.90;;;;;;5013140;28;20030;-53
2023/01/15 10:22:20;;;;;;;2.05;1.35;;;6.90;99.90;;;;;;5012606;28;20026;-48
2023/01/15 10:25:14;;;;;;;2.50;1.45;;;6.90;99.90;;;;;;5012369;28;20124;-46
2023/01/15 10:28:11;;;;;;;1.88;1.23;;;6.90;99.90;;;;;;5006950;28;20833;-52
2023/01/15 10:31:07;;;;;;;2.90;1.70;;;6.90;99.90;;;;;;5015270;28;20033;-53
2023/01/15 10:34:05;;;;;;;1.40;1.25;;;6.90;99.90;;;;;;5011142;28;20030;-58
2023/01/15 10:36:51;;;;;;;1.98;1.70;;;7.00;99.90;;;;;;5007617;28;20105;-54
2023/01/15 10:40:09;;;;;;;1.40;1.25;;;7.10;99.90;;;;;;5011617;28;20033;-59
2023/01/15 10:43:13;;;;;;;2.25;1.30;;;7.20;99.90;;;;;;5007992;28;20029;-48
2023/01/15 10:46:02;;;;;;;6.07;1.67;;;7.20;99.90;;;;;;5010128;28;20026;-50
2023/01/15 10:48:56;;;;;;;2.53;1.52;;;7.20;99.90;;;;;;5001040;28;20120;-53
2023/01/15 10:51:49;;;;;;;3.22;1.60;;;7.30;99.90;;;;;;4996905;28;20025;-52
2023/01/15 10:54:44;;;;;;;2.72;1.75;;;7.30;99.90;;;;;;5010106;28;20022;-53
2023/01/15 10:57:41;;;;;;;1.97;1.50;;;7.40;99.90;;;;;;5011662;28;20030;-50
2023/01/15 11:00:26;;;;;;;4.82;1.80;;;7.40;99.90;;;;;;5011535;28;20061;-50
2023/01/15 11:03:18;;;;;;;2.72;2.08;;;7.30;99.90;;;;;;5010062;28;20022;-50
2023/01/15 11:06:07;;;;;;;2.30;1.77;;;7.50;99.90;;;;;;5008668;28;20025;-53
2023/01/15 11:08:55;;;;;;;2.10;1.80;;;7.40;99.90;;;;;;4995300;28;20037;-52
2023/01/15 11:20:55;;;;;;;2.30;1.50;;;7.20;99.90;;;;;;5014841;28;20021;-53
2023/01/15 11:23:42;;;;;;;2.05;1.70;;;7.30;99.90;;;;;;5012624;28;20022;-58
2023/01/15 11:26:32;;;;;;;4.13;1.70;;;7.20;99.90;;;;;;5012919;28;20029;-56
2023/01/15 11:29:32;;;;;;;2.67;1.70;;;7.20;99.90;;;;;;5014272;28;20113;-55
2023/01/15 11:32:34;;;;;;;5.60;1.75;;;7.10;99.90;;;;;;5015359;28;20033;-56
2023/01/15 11:35:20;;;;;;;3.83;1.70;;;7.10;99.90;;;;;;5014110;28;20034;-53
2023/01/15 11:38:13;;;;;;;2.28;1.45;;;7.10;99.90;;;;;;5014085;28;20050;-56
2023/01/15 11:41:01;;;;;;;1.30;1.20;;;7.10;99.90;;;;;;5008577;28;20053;-52
2023/01/15 11:50:42;;;;;;;;;;;6.90;99.90;;;;;;5016554;28;20041;-57
2023/01/15 11:53:33;;;;;;;3.55;1.48;;;6.90;99.90;;;;;;5015270;28;20003;-62
2023/01/15 11:56:23;;;;;;;2.78;1.27;;;6.80;99.90;;;;;;5003735;28;20037;-56
2023/01/15 11:59:12;;;;;;;5.72;1.75;;;6.80;99.90;;;;;;5013045;28;20040;-58
2023/01/15 12:02:03;;;;;;;4.80;2.20;;;6.80;99.90;;;;;;4998859;28;20606;-60
2023/01/15 12:04:55;;;;;;;4.07;1.60;;;6.80;99.90;;;;;;5012753;28;20450;-57
2023/01/15 12:07:42;;;;;;;3.65;1.60;;;6.80;99.90;;;;;;5013048;28;20029;-57
2023/01/15 12:11:03;;;;;;;2.95;1.60;;;6.80;99.90;;;;;;4998035;28;20062;-57
2023/01/15 12:14:25;;;;;;;4.10;1.73;;;6.80;99.90;;;;;;5014541;28;20406;-57
2023/01/15 12:17:47;;;;;;;2.00;1.13;;;6.70;99.90;;;;;;4953891;28;20071;-56
2023/01/15 12:20:58;;;;;;;2.95;1.75;;;6.70;99.90;;;;;;5017324;28;20105;-56
2023/01/15 12:23:59;;;;;;;3.38;1.70;;;6.70;99.90;;;;;;5018693;28;20049;-51
2023/01/15 12:27:10;;;;;;;4.43;2.00;;;6.60;99.90;;;;;;5017869;28;20030;-54
2023/01/15 12:30:02;;;;;;;2.45;1.13;;;6.60;99.90;;;;;;5017434;28;20109;-53
2023/01/15 12:32:59;;;;;;;2.40;1.30;;;6.60;99.90;;;;;;5000321;28;20379;-54
2023/01/15 12:36:00;;;;;;;2.00;1.70;;;6.70;99.90;;;;;;5013682;28;20247;-57
2023/01/15 12:39:17;;;;;;;4.85;1.60;;;6.70;99.90;;;;;;5013699;28;20033;-60
2023/01/15 12:45:20;;;;;;;4.15;1.70;;;6.60;99.90;;;;;;5014074;28;20026;-56
2023/01/15 12:48:37;;;;;;;1.40;1.30;;;6.60;99.90;;;;;;5013201;28;20115;-55
2023/01/15 12:51:39;;;;;;;2.28;1.52;;;6.60;99.90;;;;;;5014755;28;20112;-58
2023/01/15 12:54:33;;;;;;;6.30;1.48;;;6.60;99.90;;;;;;5012722;28;20110;-57
2023/01/15 12:57:33;;;;;;;1.48;1.15;;;6.50;99.90;;;;;;5014072;28;20494;-58
2023/01/15 13:00:25;;;;;;;4.00;1.65;;;6.50;99.90;;;;;;5010861;28;20026;-52
2023/01/15 13:04:03;;;;;;;1.38;1.27;;;6.50;99.90;;;;;;5022160;28;20501;-60
2023/01/15 13:06:56;;;;;;;1.45;1.35;;;6.50;99.90;;;;;;5011630;28;20130;-58
2023/01/15 13:09:48;;;;;;;2.15;1.40;;;6.50;99.90;;;;;;5014705;28;20022;-60
2023/01/15 13:12:34;;;;;;;8.02;1.42;;;6.60;99.90;;;;;;5026309;28;20025;-56
2023/01/15 13:15:27;;;;;;;5.47;1.70;;;6.60;99.90;;;;;;5032848;28;20021;-57
2023/01/15 13:18:17;;;;;;;3.05;1.65;;;6.50;99.90;;;;;;5013946;28;20029;-56
2023/01/15 13:21:12;;;;;;;1.27;1.17;;;6.50;99.90;;;;;;5013976;28;20033;-53
2023/01/15 13:24:27;;;;;;;4.85;1.85;;;6.50;99.90;;;;;;5025343;28;20025;-53
2023/01/15 13:27:23;;;;;;;2.30;1.27;;;6.60;99.90;;;;;;5028032;28;20409;-51
2023/01/15 13:30:23;;;;;;;1.73;1.40;;;6.70;99.90;;;;;;5032520;28;20018;-52
2023/01/15 13:33:27;;;;;;;1.48;1.25;;;6.70;99.90;;;;;;5031245;28;20030;-55
2023/01/15 13:36:19;;;;;;;2.15;1.45;;;6.70;99.90;;;;;;5027003;28;20083;-55
2023/01/15 13:39:10;;;;;;;2.95;1.35;;;6.70;99.90;;;;;;4996696;28;20026;-59
2023/01/15 13:45:13;;;;;;;1.55;1.20;;;6.60;99.90;;;;;;4991562;28;20030;-53
2023/01/15 13:48:14;;;;;;;2.47;1.40;;;6.70;99.90;;;;;;5026320;28;20540;-51
2023/01/15 13:51:03;;;;;;;2.10;1.60;;;6.80;99.90;;;;;;5016849;28;20029;-48
2023/01/15 13:53:49;;;;;;;3.10;1.40;;;6.80;99.90;;;;;;5017057;28;20034;-53
2023/01/15 13:56:36;;;;;;;2.80;1.40;;;6.80;99.90;;;;;;5016302;28;20033;-48
2023/01/15 13:59:42;;;;;;;1.77;1.42;;;7.00;99.90;;;;;;5027239;28;20054;-53
2023/01/15 14:02:33;;;;;;;4.45;1.83;;;7.20;99.90;;;;;;5023852;28;20024;-49
2023/01/15 14:05:27;;;;;;;3.03;1.60;;;7.30;99.90;;;;;;5019384;28;20041;-59
2023/01/15 14:08:15;;;;;;;3.42;1.60;;;7.50;99.90;;;;;;5014128;28;20113;-55
2023/01/15 14:11:02;;;;;;;1.73;1.38;;;7.70;99.90;;;;;;5028363;28;20097;-57
2023/01/15 14:14:12;;;;;;;2.70;1.45;;;7.80;99.90;;;;;;4995701;28;20053;-52
2023/01/15 14:17:01;;;;;;;4.97;1.60;;;7.80;99.90;;;;;;5027573;28;20489;-49
2023/01/15 14:20:05;;;;;;;4.07;1.77;;;7.90;99.90;;;;;;5032123;28;20409;-51
2023/01/15 14:23:21;;;;;;;4.03;1.50;;;8.10;99.40;;;;;;5020214;28;20399;-53
2023/01/15 14:26:21;;;;;;;2.92;1.52;;;8.10;99.40;;;;;;5030665;28;20029;-50
2023/01/15 14:29:24;;;;;;;2.40;1.52;;;8.00;99.30;;;;;;5015456;28;20033;-52
2023/01/15 14:32:10;;;;;;;1.50;1.40;;;7.90;99.60;;;;;;5025475;28;20441;-52
2023/01/15 14:34:59;;;;;;;4.75;2.50;;;7.90;99.60;;;;;;5017864;28;20046;-58
2023/01/15 14:37:50;;;;;;;2.75;1.80;;;7.70;99.60;;;;;;5012645;28;20030;-52
2023/01/15 14:40:54;;;;;;;2.33;1.67;;;7.90;99.70;;;;;;5018401;28;20078;-52
2023/01/15 14:43:48;;;;;;;1.98;1.30;;;7.80;99.60;;;;;;4999538;28;20030;-52
2023/01/15 14:46:37;;;;;;;1.90;1.48;;;7.50;99.90;;;;;;5005353;28;20032;-52
2023/01/15 14:49:29;;;;;;;2.60;1.90;;;7.20;99.90;;;;;;5009472;28;20029;-56
2023/01/15 14:52:23;;;;;;;1.58;1.40;;;6.80;99.90;;;;;;4993787;28;20026;-57
2023/01/15 14:55:11;;;;;;;5.38;2.03;;;6.70;99.90;;;;;;4991992;28;20027;-53
2023/01/15 14:58:04;;;;;;;2.90;2.50;;;6.60;99.90;;;;;;5027619;28;20037;-57
2023/01/15 15:00:52;;;;;;;3.60;1.58;;;6.50;99.90;;;;;;5019838;28;20026;-49
2023/01/15 15:03:48;;;;;;;3.20;1.55;;;6.50;99.90;;;;;;5035626;28;20028;-54
2023/01/15 15:06:52;;;;;;;3.95;2.10;;;6.50;99.90;;;;;;5016129;28;20053;-53
2023/01/15 15:09:52;;;;;;;3.55;1.65;;;6.50;99.90;;;;;;5003502;28;20039;-54
2023/01/15 15:13:03;;;;;;;2.35;1.30;;;6.50;99.90;;;;;;5035524;28;20040;-58
2023/01/15 15:16:11;;;;;;;1.80;1.33;;;6.50;99.90;;;;;;4996533;28;20041;-49
2023/01/15 15:19:02;;;;;;;4.15;2.13;;;6.50;99.90;;;;;;5004266;28;20084;-54
2023/01/15 15:21:49;;;;;;;2.65;1.83;;;6.40;99.90;;;;;;5034579;28;20038;-51
2023/01/15 15:24:53;;;;;;;4.07;1.63;;;6.40;99.90;;;;;;5017805;28;20113;-56
2023/01/15 15:27:39;;;;;;;4.68;2.10;;;6.40;99.90;;;;;;5033661;28;20036;-53
2023/01/15 15:30:32;;;;;;;4.05;2.08;;;6.40;99.90;;;;;;5020274;28;20038;-51
2023/01/15 15:33:21;;;;;;;3.80;1.85;;;6.40;99.90;;;;;;5018241;28;20033;-50
2023/01/15 15:36:08;;;;;;;5.38;2.20;;;6.40;99.90;;;;;;5033250;28;20436;-51
2023/01/15 15:38:57;;;;;;;3.78;1.80;;;6.40;99.90;;;;;;5034049;28;20105;-55
2023/01/15 15:48:51;;;;;;;4.38;1.85;;;6.30;99.90;;;;;;5028400;28;20034;-54
2023/01/15 15:51:45;;;;;;;3.35;1.88;;;6.30;99.90;;;;;;5022202;28;20018;-54
2023/01/15 15:54:33;;;;;;;4.32;2.05;;;6.30;99.90;;;;;;5014402;28;20061;-54
2023/01/15 15:57:19;;;;;;;4.72;1.70;;;6.30;99.90;;;;;;5023958;28;20048;-55
2023/01/15 16:00:26;;;;;;;6.35;1.70;;;6.30;99.90;;;;;;5025827;28;20594;-56
2023/01/15 16:03:30;;;;;;;3.97;1.98;;;6.30;99.90;;;;;;5015231;28;20033;-53